Time;durP1;ratioP1;P1;durP2;ratioP2;P2;SDS_P1;SDS_P2;PMS_P1;PMS_P2;Temp;Humidity;BMP_temperature;BMP_pressure;BME280_temperature;BME280_humidity;BME280_pressure;Samples;Min_cycle;Max_cycle;Signal;HPM_P1;HPM_P2
2022/05/21 00:02:03;;;;;;;2.33;2.23;;;;;;;;;;5066350;28;20449;-72
2022/05/21 00:04:29;;;;;;;2.13;2.13;;;;;;;;;;5063809;28;20921;-74
2022/05/21 00:06:55;;;;;;;2.67;2.53;;;;;;;;;;5064743;28;20529;-72
2022/05/21 00:09:21;;;;;;;2.23;2.13;;;;;;;;;;5068928;28;20448;-72
2022/05/21 00:11:47;;;;;;;2.97;2.87;;;;;;;;;;5064169;28;20471;-71
2022/05/21 00:14:13;;;;;;;2.40;2.30;;;;;;;;;;5068906;28;20474;-72
2022/05/21 00:16:39;;;;;;;5.30;2.53;;;;;;;;;;5068580;28;20447;-71
2022/05/21 00:19:05;;;;;;;2.47;2.40;;;;;;;;;;5064928;28;20494;-72
2022/05/21 00:21:31;;;;;;;2.30;2.20;;;;;;;;;;5068212;28;20453;-72
2022/05/21 00:23:57;;;;;;;3.73;2.20;;;;;;;;;;5067898;28;20534;-73
2022/05/21 00:26:25;;;;;;;2.30;1.57;;;;;;;;;;5067690;28;20529;-72
2022/05/21 00:28:51;;;;;;;2.93;1.70;;;;;;;;;;5069212;28;20519;-72
2022/05/21 00:31:18;;;;;;;2.00;1.90;;;;;;;;;;5067456;28;20479;-72
2022/05/21 00:33:45;;;;;;;4.00;2.00;;;;;;;;;;5067018;28;20525;-73
2022/05/21 00:36:11;;;;;;;1.07;1.07;;;;;;;;;;5062161;28;20815;-73
2022/05/21 00:38:38;;;;;;;1.77;1.17;;;;;;;;;;5066329;28;20481;-73
2022/05/21 00:41:04;;;;;;;3.20;1.10;;;;;;;;;;5065816;28;20445;-72
2022/05/21 00:43:33;;;;;;;7.83;1.83;;;;;;;;;;5065902;28;20486;-73
2022/05/21 00:45:59;;;;;;;1.60;1.50;;;;;;;;;;5064810;28;20779;-73
2022/05/21 00:48:26;;;;;;;1.23;1.13;;;;;;;;;;5065897;28;20787;-72
2022/05/21 00:50:52;;;;;;;2.87;1.23;;;;;;;;;;5067494;28;20476;-72
2022/05/21 00:53:19;;;;;;;1.13;0.80;;;;;;;;;;5066255;28;20483;-71
2022/05/21 00:55:45;;;;;;;1.23;1.10;;;;;;;;;;5065974;28;20461;-72
2022/05/21 01:00:58;;;;;;;0.87;0.87;;;;;;;;;;5064559;28;20829;-72
2022/05/21 01:03:25;;;;;;;0.83;0.80;;;;;;;;;;5066536;28;20441;-71
2022/05/21 01:05:51;;;;;;;1.00;1.00;;;;;;;;;;5065253;28;20425;-73
2022/05/21 01:08:17;;;;;;;7.63;0.93;;;;;;;;;;5063874;28;20431;-71
2022/05/21 01:10:51;;;;;;;1.30;1.30;;;;;;;;;;5064859;28;20937;-72
2022/05/21 01:13:19;;;;;;;3.50;1.10;;;;;;;;;;5067083;28;20460;-72
2022/05/21 01:15:46;;;;;;;1.80;1.10;;;;;;;;;;5066221;28;20444;-71
2022/05/21 01:18:13;;;;;;;0.83;0.83;;;;;;;;;;5067011;28;20499;-72
2022/05/21 01:20:44;;;;;;;1.10;1.10;;;;;;;;;;5065805;28;20490;-71
2022/05/21 01:23:10;;;;;;;1.47;1.17;;;;;;;;;;5066900;28;20467;-73
2022/05/21 01:25:38;;;;;;;1.30;1.30;;;;;;;;;;5066210;28;20434;-72
2022/05/21 01:28:04;;;;;;;1.90;1.50;;;;;;;;;;5059721;28;20559;-73
2022/05/21 01:30:32;;;;;;;1.80;1.70;;;;;;;;;;5065907;28;20524;-73
2022/05/21 01:32:58;;;;;;;0.90;0.90;;;;;;;;;;5062915;28;20486;-73
2022/05/21 01:35:24;;;;;;;4.20;1.00;;;;;;;;;;5063522;28;20441;-72
2022/05/21 01:37:50;;;;;;;2.67;1.70;;;;;;;;;;5062985;28;20896;-72
2022/05/21 01:40:20;;;;;;;1.30;1.30;;;;;;;;;;5067075;28;20504;-72
2022/05/21 01:44:37;;;;;;;1.70;1.30;;;;;;;;;;5064162;28;20441;-72
2022/05/21 01:45:35;;;;;;;4.93;1.50;;;;;;;;;;5065059;28;20429;-73
2022/05/21 01:48:02;;;;;;;0.90;0.90;;;;;;;;;;5064462;28;20449;-72
2022/05/21 01:50:29;;;;;;;1.20;1.20;;;;;;;;;;5064700;28;20484;-71
2022/05/21 01:52:55;;;;;;;2.50;1.17;;;;;;;;;;5064491;28;20445;-72
2022/05/21 01:55:21;;;;;;;1.50;0.90;;;;;;;;;;5066275;28;20455;-72
2022/05/21 01:57:47;;;;;;;0.50;0.50;;;;;;;;;;5061673;28;20468;-72
2022/05/21 02:00:14;;;;;;;0.73;0.70;;;;;;;;;;5062616;28;20925;-72
2022/05/21 02:02:40;;;;;;;0.87;0.67;;;;;;;;;;5064256;28;20913;-71
2022/05/21 02:05:06;;;;;;;0.80;0.80;;;;;;;;;;5064792;28;20489;-72
2022/05/21 02:07:32;;;;;;;0.90;0.70;;;;;;;;;;5070942;28;20445;-72
2022/05/21 02:09:58;;;;;;;1.03;0.60;;;;;;;;;;5066888;28;20510;-71
2022/05/21 02:12:24;;;;;;;0.80;0.80;;;;;;;;;;5070886;28;20438;-72
2022/05/21 02:14:50;;;;;;;0.60;0.60;;;;;;;;;;5067475;28;20442;-71
2022/05/21 02:17:17;;;;;;;1.17;0.70;;;;;;;;;;5066710;28;20567;-72
2022/05/21 02:19:43;;;;;;;1.03;0.77;;;;;;;;;;5069651;28;20438;-72
2022/05/21 02:22:09;;;;;;;0.60;0.60;;;;;;;;;;5066402;28;20809;-72
2022/05/21 02:24:36;;;;;;;0.63;0.63;;;;;;;;;;5068933;28;20433;-71
2022/05/21 02:27:02;;;;;;;1.23;0.97;;;;;;;;;;5052341;28;20425;-71
2022/05/21 02:29:28;;;;;;;1.57;0.97;;;;;;;;;;5069848;28;20957;-71
2022/05/21 02:31:54;;;;;;;5.27;0.80;;;;;;;;;;5069737;28;20421;-72
2022/05/21 02:34:20;;;;;;;1.03;0.80;;;;;;;;;;5071163;28;20437;-72
2022/05/21 02:39:30;;;;;;;0.77;0.77;;;;;;;;;;5068282;28;20432;-71
2022/05/21 02:41:58;;;;;;;0.70;0.70;;;;;;;;;;5070298;28;20460;-72
2022/05/21 02:44:24;;;;;;;2.03;0.60;;;;;;;;;;5071249;28;20437;-71
2022/05/21 02:46:50;;;;;;;2.20;0.60;;;;;;;;;;5065138;28;20504;-72
2022/05/21 02:49:16;;;;;;;2.73;1.00;;;;;;;;;;5065176;28;20498;-71
2022/05/21 02:51:42;;;;;;;1.57;0.90;;;;;;;;;;5067405;28;20528;-72
2022/05/21 02:54:09;;;;;;;0.60;0.60;;;;;;;;;;5067668;28;20422;-72
2022/05/21 02:56:36;;;;;;;0.97;0.97;;;;;;;;;;5067537;28;20533;-72
2022/05/21 02:59:06;;;;;;;2.33;0.83;;;;;;;;;;5069164;28;20585;-72
2022/05/21 03:01:32;;;;;;;9.40;0.90;;;;;;;;;;5063353;28;20524;-71
2022/05/21 03:03:58;;;;;;;0.50;0.50;;;;;;;;;;5070962;28;20441;-72
2022/05/21 03:06:24;;;;;;;0.80;0.80;;;;;;;;;;5068061;28;20431;-72
2022/05/21 03:11:35;;;;;;;0.70;0.70;;;;;;;;;;5069394;28;20424;-71
2022/05/21 03:14:01;;;;;;;1.80;0.80;;;;;;;;;;5067838;28;20441;-72
2022/05/21 03:16:27;;;;;;;0.57;0.57;;;;;;;;;;5067116;28;20452;-72
2022/05/21 03:18:53;;;;;;;0.90;0.90;;;;;;;;;;5064501;28;20484;-71
2022/05/21 03:21:19;;;;;;;0.50;0.50;;;;;;;;;;5068484;28;20421;-72
2022/05/21 03:23:45;;;;;;;1.40;0.70;;;;;;;;;;5068391;28;20963;-72
2022/05/21 03:26:11;;;;;;;4.53;1.30;;;;;;;;;;5065840;28;20437;-72
2022/05/21 03:28:37;;;;;;;1.40;1.40;;;;;;;;;;5064445;28;21000;-71
2022/05/21 03:31:03;;;;;;;1.07;1.07;;;;;;;;;;5064662;28;20441;-72
2022/05/21 03:33:29;;;;;;;0.93;0.83;;;;;;;;;;5069637;28;20518;-71
2022/05/21 03:35:54;;;;;;;0.50;0.50;;;;;;;;;;5066739;28;20767;-71
2022/05/21 03:38:20;;;;;;;1.07;1.00;;;;;;;;;;5067285;28;20488;-72
2022/05/21 03:40:47;;;;;;;1.13;1.00;;;;;;;;;;5064317;28;20437;-72
2022/05/21 03:43:13;;;;;;;2.10;0.70;;;;;;;;;;5069458;28;20430;-71
2022/05/21 03:45:40;;;;;;;0.80;0.80;;;;;;;;;;5067166;28;20791;-72
2022/05/21 03:48:07;;;;;;;0.77;0.77;;;;;;;;;;5066804;28;20487;-71
2022/05/21 03:50:33;;;;;;;1.60;0.80;;;;;;;;;;5060887;28;20469;-71
2022/05/21 03:53:00;;;;;;;1.80;0.63;;;;;;;;;;5066876;28;20598;-72
2022/05/21 03:55:26;;;;;;;1.57;0.97;;;;;;;;;;5066042;28;20930;-72
2022/05/21 03:57:52;;;;;;;0.97;0.97;;;;;;;;;;5063069;28;20477;-71
2022/05/21 04:00:19;;;;;;;0.97;0.90;;;;;;;;;;5065997;28;20442;-72
2022/05/21 04:02:46;;;;;;;2.30;0.97;;;;;;;;;;5065999;28;20449;-72
2022/05/21 04:05:12;;;;;;;0.93;0.90;;;;;;;;;;5068679;28;20444;-72
2022/05/21 04:07:39;;;;;;;1.17;0.83;;;;;;;;;;5065342;28;20789;-72
2022/05/21 04:10:06;;;;;;;0.60;0.60;;;;;;;;;;5066513;28;20514;-71
2022/05/21 04:12:32;;;;;;;0.93;0.93;;;;;;;;;;5062614;28;20850;-71
2022/05/21 04:14:57;;;;;;;1.80;0.90;;;;;;;;;;5069473;28;20914;-72
2022/05/21 04:17:23;;;;;;;0.80;0.73;;;;;;;;;;5067789;28;20896;-71
2022/05/21 04:19:49;;;;;;;1.00;1.00;;;;;;;;;;5064781;28;20433;-72
2022/05/21 04:22:15;;;;;;;1.13;1.13;;;;;;;;;;5063753;28;20498;-71
2022/05/21 04:24:41;;;;;;;0.87;0.87;;;;;;;;;;5066717;28;20440;-71
2022/05/21 04:27:07;;;;;;;1.50;0.97;;;;;;;;;;5064726;28;20922;-72
2022/05/21 04:29:35;;;;;;;0.80;0.80;;;;;;;;;;5064192;28;20495;-72
2022/05/21 04:32:01;;;;;;;0.90;0.90;;;;;;;;;;5064589;28;20437;-71
2022/05/21 04:34:27;;;;;;;1.43;0.93;;;;;;;;;;5067271;28;20991;-72
2022/05/21 04:36:53;;;;;;;12.57;2.07;;;;;;;;;;5066087;28;21082;-72
2022/05/21 04:39:19;;;;;;;1.43;1.17;;;;;;;;;;5066652;28;20827;-72
2022/05/21 04:41:45;;;;;;;2.23;1.17;;;;;;;;;;5063201;28;20460;-71
2022/05/21 04:44:11;;;;;;;1.53;1.00;;;;;;;;;;5066857;28;20865;-71
2022/05/21 04:46:37;;;;;;;1.00;1.00;;;;;;;;;;5066300;28;20430;-71
2022/05/21 04:49:03;;;;;;;1.00;0.90;;;;;;;;;;5068176;28;20477;-71
2022/05/21 04:51:30;;;;;;;1.00;1.00;;;;;;;;;;5063618;28;20771;-71
2022/05/21 04:53:56;;;;;;;2.60;0.90;;;;;;;;;;5062818;28;20434;-71
2022/05/21 04:56:23;;;;;;;1.03;0.90;;;;;;;;;;5062135;28;21004;-73
2022/05/21 04:58:49;;;;;;;1.30;1.30;;;;;;;;;;5067965;28;20508;-72
2022/05/21 05:01:15;;;;;;;2.87;0.90;;;;;;;;;;5067319;28;20464;-73
2022/05/21 05:03:41;;;;;;;2.00;0.80;;;;;;;;;;5067255;28;20442;-72
2022/05/21 05:06:08;;;;;;;1.10;1.10;;;;;;;;;;5064543;28;20418;-72
2022/05/21 05:08:35;;;;;;;1.07;1.07;;;;;;;;;;5064530;28;20624;-71
2022/05/21 05:11:01;;;;;;;1.20;1.20;;;;;;;;;;5064105;28;20504;-71
2022/05/21 05:13:27;;;;;;;1.20;1.20;;;;;;;;;;5067885;28;20801;-71
2022/05/21 05:15:53;;;;;;;3.17;1.07;;;;;;;;;;5065120;28;20427;-71
2022/05/21 05:18:27;;;;;;;3.17;0.90;;;;;;;;;;5065335;28;20838;-72
2022/05/21 05:20:53;;;;;;;2.00;1.10;;;;;;;;;;5067451;28;20466;-72
2022/05/21 05:23:19;;;;;;;0.97;0.97;;;;;;;;;;5063575;28;20532;-71
2022/05/21 05:25:45;;;;;;;1.10;1.00;;;;;;;;;;5064009;28;20904;-71
2022/05/21 05:28:13;;;;;;;1.20;1.20;;;;;;;;;;5061326;28;20979;-72
2022/05/21 05:30:39;;;;;;;1.00;1.00;;;;;;;;;;5066215;28;20436;-72
2022/05/21 05:33:05;;;;;;;4.00;1.00;;;;;;;;;;5064728;28;20437;-71
2022/05/21 05:35:31;;;;;;;2.93;1.10;;;;;;;;;;5067324;28;20510;-72
2022/05/21 05:37:57;;;;;;;4.13;3.73;;;;;;;;;;5065162;28;20518;-72
2022/05/21 05:40:23;;;;;;;2.50;1.07;;;;;;;;;;5067163;28;20430;-73
2022/05/21 05:42:49;;;;;;;0.90;0.90;;;;;;;;;;5068534;28;20437;-71
2022/05/21 05:45:16;;;;;;;1.10;1.10;;;;;;;;;;5067126;28;20426;-72
2022/05/21 05:47:44;;;;;;;1.13;0.90;;;;;;;;;;5065957;28;20972;-71
2022/05/21 05:50:11;;;;;;;1.10;1.10;;;;;;;;;;5062749;28;20487;-71
2022/05/21 05:52:37;;;;;;;1.60;1.30;;;;;;;;;;5068964;28;20441;-72
2022/05/21 05:55:03;;;;;;;1.70;1.63;;;;;;;;;;5071424;28;20421;-72
2022/05/21 05:57:29;;;;;;;1.10;1.10;;;;;;;;;;5071483;28;20528;-71
2022/05/21 05:59:56;;;;;;;2.93;2.30;;;;;;;;;;5067598;28;20528;-71
2022/05/21 06:05:09;;;;;;;1.10;1.10;;;;;;;;;;5071184;28;20432;-71
2022/05/21 06:07:41;;;;;;;1.00;1.00;;;;;;;;;;5072496;28;20437;-72
2022/05/21 06:10:07;;;;;;;0.97;0.97;;;;;;;;;;5063969;28;20494;-72
2022/05/21 06:12:33;;;;;;;1.27;1.13;;;;;;;;;;5070809;28;20438;-71
2022/05/21 06:14:59;;;;;;;2.57;1.00;;;;;;;;;;5065449;28;20434;-71
2022/05/21 06:17:25;;;;;;;1.20;0.87;;;;;;;;;;5067320;28;20461;-71
2022/05/21 06:19:54;;;;;;;1.27;1.27;;;;;;;;;;5069913;28;20468;-71
2022/05/21 06:22:21;;;;;;;1.10;1.10;;;;;;;;;;5052557;28;20436;-72
2022/05/21 06:24:47;;;;;;;3.13;1.00;;;;;;;;;;5069318;28;20424;-72
2022/05/21 06:27:13;;;;;;;1.20;1.20;;;;;;;;;;5069437;28;20429;-72
2022/05/21 06:29:39;;;;;;;2.87;1.37;;;;;;;;;;5064681;28;20909;-72
2022/05/21 06:32:06;;;;;;;2.50;1.30;;;;;;;;;;5070097;28;20502;-72
2022/05/21 06:34:32;;;;;;;1.30;1.00;;;;;;;;;;5067502;28;20457;-72
2022/05/21 06:37:03;;;;;;;0.73;0.73;;;;;;;;;;5071665;28;20429;-72
2022/05/21 06:39:31;;;;;;;0.90;0.90;;;;;;;;;;5066704;28;20481;-72
2022/05/21 06:41:57;;;;;;;1.17;0.93;;;;;;;;;;5069266;28;20536;-72
2022/05/21 06:44:23;;;;;;;1.47;1.20;;;;;;;;;;5067203;28;20524;-71
2022/05/21 06:46:49;;;;;;;1.53;1.47;;;;;;;;;;5069612;28;20442;-72
2022/05/21 06:49:15;;;;;;;0.90;0.90;;;;;;;;;;5067281;28;20489;-72
2022/05/21 06:51:41;;;;;;;2.50;0.87;;;;;;;;;;5068960;28;20430;-71
2022/05/21 06:54:07;;;;;;;1.03;1.00;;;;;;;;;;5067838;28;20477;-72
2022/05/21 06:56:33;;;;;;;1.00;0.93;;;;;;;;;;5065580;28;20925;-72
2022/05/21 06:58:59;;;;;;;1.20;1.20;;;;;;;;;;5064017;28;20845;-72
2022/05/21 07:01:25;;;;;;;1.17;1.17;;;;;;;;;;5065920;28;20445;-72
2022/05/21 07:03:51;;;;;;;1.03;0.80;;;;;;;;;;5068131;28;21640;-71
2022/05/21 07:09:03;;;;;;;1.17;1.17;;;;;;;;;;5065944;28;20468;-71
2022/05/21 07:11:29;;;;;;;1.10;1.10;;;;;;;;;;5064145;28;20836;-71
2022/05/21 07:13:55;;;;;;;0.90;0.90;;;;;;;;;;5067332;28;20990;-71
2022/05/21 07:16:21;;;;;;;1.10;1.00;;;;;;;;;;5066592;28;20524;-71
2022/05/21 07:18:47;;;;;;;1.00;1.00;;;;;;;;;;5068048;28;20497;-71
2022/05/21 07:21:15;;;;;;;4.13;1.20;;;;;;;;;;5071200;28;20429;-71
2022/05/21 07:23:41;;;;;;;4.33;1.30;;;;;;;;;;5064378;28;20438;-71
2022/05/21 07:26:07;;;;;;;1.47;0.83;;;;;;;;;;5065608;28;21008;-71
2022/05/21 07:28:33;;;;;;;2.20;1.40;;;;;;;;;;5064439;28;20520;-71
2022/05/21 07:30:59;;;;;;;0.97;0.97;;;;;;;;;;5050737;28;20431;-71
2022/05/21 07:33:25;;;;;;;0.80;0.70;;;;;;;;;;5066221;28;20460;-71
2022/05/21 07:35:51;;;;;;;2.57;2.23;;;;;;;;;;5070647;28;20827;-71
2022/05/21 07:38:18;;;;;;;3.13;0.90;;;;;;;;;;5067326;28;20592;-71
2022/05/21 07:40:45;;;;;;;0.60;0.60;;;;;;;;;;5068983;28;20426;-71
2022/05/21 07:43:11;;;;;;;1.27;0.80;;;;;;;;;;5068531;28;20873;-72
2022/05/21 07:45:39;;;;;;;0.70;0.70;;;;;;;;;;5066769;28;20528;-71
2022/05/21 07:48:05;;;;;;;0.60;0.50;;;;;;;;;;5069553;28;20433;-71
2022/05/21 07:50:31;;;;;;;0.70;0.70;;;;;;;;;;5068279;28;20551;-71
2022/05/21 07:52:57;;;;;;;0.53;0.53;;;;;;;;;;5066091;28;20557;-71
2022/05/21 07:55:24;;;;;;;0.60;0.60;;;;;;;;;;5065137;28;20434;-71
2022/05/21 07:57:50;;;;;;;3.80;1.07;;;;;;;;;;5067371;28;20473;-72
2022/05/21 08:00:18;;;;;;;2.27;0.70;;;;;;;;;;5060641;28;20795;-71
2022/05/21 08:02:45;;;;;;;1.43;1.13;;;;;;;;;;5067025;28;20436;-71
2022/05/21 08:05:11;;;;;;;1.23;0.60;;;;;;;;;;5066817;28;20476;-71
2022/05/21 08:07:37;;;;;;;0.50;0.50;;;;;;;;;;5062040;28;20426;-71
2022/05/21 08:10:04;;;;;;;0.60;0.60;;;;;;;;;;5048914;28;20451;-71
2022/05/21 08:12:30;;;;;;;1.40;1.30;;;;;;;;;;5063836;28;20433;-71
2022/05/21 08:14:56;;;;;;;1.40;0.60;;;;;;;;;;5067803;28;20487;-71
2022/05/21 08:17:22;;;;;;;2.10;0.77;;;;;;;;;;5067699;28;20434;-71
2022/05/21 08:19:48;;;;;;;2.53;0.60;;;;;;;;;;5069094;28;20425;-71
2022/05/21 08:27:43;;;;;;;3.03;0.87;;;;;;;;;;5063674;28;20425;-71
2022/05/21 08:30:09;;;;;;;0.50;0.50;;;;;;;;;;5065527;28;20430;-71
2022/05/21 08:32:36;;;;;;;0.50;0.50;;;;;;;;;;5062888;28;20438;-71
2022/05/21 08:35:02;;;;;;;0.60;0.60;;;;;;;;;;5065378;28;20430;-71
2022/05/21 08:37:28;;;;;;;0.67;0.67;;;;;;;;;;5063688;28;20471;-71
2022/05/21 08:39:54;;;;;;;0.77;0.50;;;;;;;;;;5064853;28;20803;-71
2022/05/21 08:42:26;;;;;;;1.80;0.60;;;;;;;;;;5068505;28;20429;-71
2022/05/21 08:44:55;;;;;;;1.07;0.93;;;;;;;;;;5067020;28;20480;-71
2022/05/21 08:47:22;;;;;;;1.00;0.53;;;;;;;;;;5067053;28;20425;-71
2022/05/21 08:49:59;;;;;;;0.50;0.50;;;;;;;;;;5064124;28;20507;-71
2022/05/21 08:52:31;;;;;;;0.40;0.40;;;;;;;;;;5068369;28;20444;-71
2022/05/21 08:54:59;;;;;;;0.60;0.60;;;;;;;;;;5068336;28;20440;-72
2022/05/21 08:57:27;;;;;;;0.50;0.50;;;;;;;;;;5063897;28;20936;-71
2022/05/21 09:00:04;;;;;;;0.50;0.50;;;;;;;;;;5063501;28;20434;-71
2022/05/21 09:02:32;;;;;;;0.50;0.50;;;;;;;;;;5065410;28;20457;-71
2022/05/21 09:04:57;;;;;;;0.50;0.50;;;;;;;;;;5066350;28;20490;-72
2022/05/21 09:07:25;;;;;;;0.40;0.40;;;;;;;;;;5064544;28;20801;-71
2022/05/21 09:10:07;;;;;;;1.57;1.40;;;;;;;;;;5065391;28;20442;-71
2022/05/21 09:12:52;;;;;;;1.83;0.53;;;;;;;;;;5066892;28;20429;-71
2022/05/21 09:18:11;;;;;;;1.07;0.70;;;;;;;;;;5063599;28;20473;-72
2022/05/21 09:20:41;;;;;;;0.40;0.40;;;;;;;;;;5064254;28;20441;-71
2022/05/21 09:23:07;;;;;;;0.73;0.70;;;;;;;;;;5056398;28;20418;-72
2022/05/21 09:25:33;;;;;;;2.20;0.40;;;;;;;;;;5060221;28;20461;-71
2022/05/21 09:28:01;;;;;;;0.50;0.50;;;;;;;;;;5060448;28;20456;-71
2022/05/21 09:30:32;;;;;;;2.40;0.60;;;;;;;;;;5062875;28;20445;-72
2022/05/21 09:32:59;;;;;;;0.30;0.30;;;;;;;;;;5068192;28;20429;-71
2022/05/21 09:35:31;;;;;;;0.47;0.47;;;;;;;;;;5064555;28;20936;-71
2022/05/21 09:37:58;;;;;;;0.67;0.67;;;;;;;;;;5056916;28;20489;-71
2022/05/21 09:40:30;;;;;;;1.43;0.50;;;;;;;;;;5062907;28;20425;-71
2022/05/21 09:45:42;;;;;;;0.50;0.50;;;;;;;;;;5064264;28;20420;-71
2022/05/21 09:48:08;;;;;;;0.50;0.50;;;;;;;;;;5064846;28;20486;-71
2022/05/21 09:50:46;;;;;;;2.30;0.60;;;;;;;;;;5067935;28;20473;-71
2022/05/21 09:53:24;;;;;;;0.60;0.50;;;;;;;;;;5066069;28;20203;-71
2022/05/21 09:56:01;;;;;;;0.30;0.30;;;;;;;;;;5069041;28;20921;-71
2022/05/21 09:58:28;;;;;;;1.37;0.70;;;;;;;;;;5058503;28;20836;-71
2022/05/21 10:00:55;;;;;;;0.30;0.30;;;;;;;;;;5061841;28;20509;-71
2022/05/21 10:03:36;;;;;;;0.43;0.40;;;;;;;;;;5063554;28;20478;-71
2022/05/21 10:06:05;;;;;;;0.40;0.40;;;;;;;;;;5066996;28;20855;-71
2022/05/21 10:11:26;;;;;;;0.70;0.70;;;;;;;;;;5061862;28;20429;-71
2022/05/21 10:13:55;;;;;;;0.53;0.53;;;;;;;;;;5062880;28;20434;-71
2022/05/21 10:16:27;;;;;;;0.50;0.50;;;;;;;;;;5062782;28;20908;-72
2022/05/21 10:18:58;;;;;;;0.30;0.30;;;;;;;;;;5062250;28;20492;-71
2022/05/21 10:21:35;;;;;;;0.43;0.43;;;;;;;;;;5062530;28;20516;-71
2022/05/21 10:24:04;;;;;;;0.40;0.40;;;;;;;;;;5064612;28;20449;-71
2022/05/21 10:26:50;;;;;;;0.60;0.60;;;;;;;;;;5063643;28;20440;-71
2022/05/21 10:29:38;;;;;;;0.30;0.30;;;;;;;;;;5067224;28;20536;-71
2022/05/21 10:32:23;;;;;;;0.30;0.30;;;;;;;;;;5062572;28;20445;-71
2022/05/21 10:35:10;;;;;;;0.40;0.40;;;;;;;;;;5068407;28;20466;-71
2022/05/21 10:37:55;;;;;;;0.50;0.50;;;;;;;;;;5048306;28;20441;-71
2022/05/21 10:40:40;;;;;;;1.80;0.60;;;;;;;;;;5065429;28;20602;-71
2022/05/21 10:43:06;;;;;;;0.37;0.37;;;;;;;;;;5066385;28;20790;-71
2022/05/21 10:45:34;;;;;;;0.60;0.60;;;;;;;;;;5068073;28;20421;-71
2022/05/21 10:48:15;;;;;;;0.87;0.50;;;;;;;;;;5068085;28;20429;-71
2022/05/21 10:50:47;;;;;;;0.30;0.30;;;;;;;;;;5065313;28;20933;-71
2022/05/21 10:53:37;;;;;;;0.53;0.53;;;;;;;;;;5066291;28;21057;-72
2022/05/21 10:56:23;;;;;;;0.30;0.30;;;;;;;;;;5049069;28;20517;-71
2022/05/21 10:59:07;;;;;;;1.57;0.40;;;;;;;;;;5069808;28;20481;-72
2022/05/21 11:01:46;;;;;;;0.50;0.50;;;;;;;;;;5070769;28;20433;-72
2022/05/21 11:04:21;;;;;;;2.00;0.40;;;;;;;;;;5065331;28;20790;-71
2022/05/21 11:07:05;;;;;;;0.40;0.40;;;;;;;;;;5066755;28;20441;-72
2022/05/21 11:09:34;;;;;;;0.37;0.37;;;;;;;;;;5064645;28;20487;-71
2022/05/21 11:12:04;;;;;;;0.30;0.30;;;;;;;;;;5064883;28;20437;-72
2022/05/21 11:14:33;;;;;;;0.43;0.40;;;;;;;;;;5062275;28;20929;-71
2022/05/21 11:17:06;;;;;;;0.40;0.40;;;;;;;;;;5068133;28;20445;-66
2022/05/21 11:19:44;;;;;;;0.70;0.70;;;;;;;;;;5067209;28;20491;-71
2022/05/21 11:22:12;;;;;;;1.60;0.50;;;;;;;;;;5064090;28;20909;-72
2022/05/21 11:24:42;;;;;;;0.40;0.40;;;;;;;;;;5068580;28;20433;-71
2022/05/21 11:27:18;;;;;;;0.53;0.53;;;;;;;;;;5071372;28;20426;-71
2022/05/21 11:29:44;;;;;;;0.77;0.67;;;;;;;;;;5069059;28;20948;-72
2022/05/21 11:37:54;;;;;;;1.07;1.07;;;;;;;;;;5065086;28;20510;-71
2022/05/21 11:40:49;;;;;;;0.40;0.40;;;;;;;;;;5066587;28;20938;-72
2022/05/21 11:43:16;;;;;;;0.50;0.50;;;;;;;;;;5069980;28;20422;-72
2022/05/21 11:45:42;;;;;;;0.40;0.40;;;;;;;;;;5069587;28;20491;-71
2022/05/21 11:48:12;;;;;;;0.87;0.50;;;;;;;;;;5069901;28;20433;-72
2022/05/21 11:50:40;;;;;;;0.50;0.50;;;;;;;;;;5070922;28;20972;-72
2022/05/21 11:53:29;;;;;;;0.60;0.60;;;;;;;;;;5069066;28;20945;-72
2022/05/21 11:55:56;;;;;;;0.60;0.60;;;;;;;;;;5069568;28;20460;-71
2022/05/21 11:58:25;;;;;;;0.50;0.50;;;;;;;;;;5062596;28;20484;-71
2022/05/21 12:00:53;;;;;;;0.30;0.30;;;;;;;;;;5068007;28;20548;-72
2022/05/21 12:03:21;;;;;;;0.60;0.60;;;;;;;;;;5068440;28;20429;-71
2022/05/21 12:05:47;;;;;;;0.77;0.60;;;;;;;;;;5062412;28;20445;-72
2022/05/21 12:08:12;;;;;;;0.50;0.50;;;;;;;;;;5068255;28;20433;-72
2022/05/21 12:10:57;;;;;;;0.40;0.40;;;;;;;;;;5070719;28;20435;-72
2022/05/21 12:13:49;;;;;;;1.83;0.57;;;;;;;;;;5065773;28;20277;-72
2022/05/21 12:16:15;;;;;;;0.30;0.30;;;;;;;;;;5052324;28;20442;-71
2022/05/21 12:18:41;;;;;;;0.60;0.60;;;;;;;;;;5068274;28;20469;-72
2022/05/21 12:21:12;;;;;;;0.60;0.60;;;;;;;;;;5066120;28;20189;-72
2022/05/21 12:23:42;;;;;;;0.70;0.57;;;;;;;;;;5067647;28;20452;-72
2022/05/21 12:26:21;;;;;;;0.43;0.43;;;;;;;;;;5069579;28;20434;-72
2022/05/21 12:28:51;;;;;;;0.50;0.50;;;;;;;;;;5065177;28;20429;-72
2022/05/21 12:31:32;;;;;;;1.83;0.70;;;;;;;;;;5068782;28;20449;-72
2022/05/21 12:34:24;;;;;;;0.50;0.50;;;;;;;;;;5065114;28;20468;-72
2022/05/21 12:37:01;;;;;;;1.17;0.40;;;;;;;;;;5068989;28;20913;-72
2022/05/21 12:39:44;;;;;;;1.23;0.40;;;;;;;;;;5067796;28;20519;-72
2022/05/21 12:42:18;;;;;;;0.40;0.40;;;;;;;;;;5068499;28;20433;-72
2022/05/21 12:44:45;;;;;;;1.37;0.70;;;;;;;;;;5070344;28;20418;-72
2022/05/21 12:47:13;;;;;;;0.43;0.43;;;;;;;;;;5066583;28;20497;-71
2022/05/21 12:49:46;;;;;;;1.40;0.67;;;;;;;;;;5065964;28;20476;-72
2022/05/21 12:52:19;;;;;;;0.43;0.43;;;;;;;;;;5066744;28;20528;-72
2022/05/21 12:54:45;;;;;;;0.50;0.50;;;;;;;;;;5067968;28;20429;-71
2022/05/21 12:57:12;;;;;;;0.40;0.40;;;;;;;;;;5068498;28;20425;-72
2022/05/21 12:59:39;;;;;;;0.57;0.57;;;;;;;;;;5060792;28;20488;-71
2022/05/21 13:02:12;;;;;;;0.57;0.47;;;;;;;;;;5063667;28;20836;-72
2022/05/21 13:04:41;;;;;;;0.40;0.40;;;;;;;;;;5067093;28;20459;-72
2022/05/21 13:07:22;;;;;;;0.67;0.67;;;;;;;;;;5068776;28;20437;-72
2022/05/21 13:09:52;;;;;;;0.50;0.50;;;;;;;;;;5067350;28;20429;-71
2022/05/21 13:12:18;;;;;;;0.50;0.50;;;;;;;;;;5064680;28;20473;-71
2022/05/21 13:14:45;;;;;;;0.40;0.40;;;;;;;;;;5066287;28;20768;-72
2022/05/21 13:17:38;;;;;;;0.40;0.40;;;;;;;;;;5065666;28;20434;-71
2022/05/21 13:20:33;;;;;;;1.23;0.70;;;;;;;;;;5067413;28;20450;-72
2022/05/21 13:23:19;;;;;;;6.27;0.63;;;;;;;;;;5031827;28;20494;-72
2022/05/21 13:25:52;;;;;;;0.40;0.40;;;;;;;;;;5069595;28;20421;-72
2022/05/21 13:28:20;;;;;;;0.40;0.40;;;;;;;;;;5065353;28;20429;-72
2022/05/21 13:30:51;;;;;;;0.40;0.40;;;;;;;;;;5068412;28;20426;-72
2022/05/21 13:33:46;;;;;;;0.37;0.37;;;;;;;;;;5068407;28;20414;-73
2022/05/21 13:36:14;;;;;;;0.93;0.50;;;;;;;;;;5060625;28;20800;-71
2022/05/21 13:38:41;;;;;;;0.37;0.30;;;;;;;;;;5067463;28;20481;-72
2022/05/21 13:41:14;;;;;;;1.30;1.20;;;;;;;;;;5068520;28;20503;-72
2022/05/21 13:43:50;;;;;;;0.93;0.60;;;;;;;;;;5064993;28;20794;-72
2022/05/21 13:46:32;;;;;;;0.40;0.40;;;;;;;;;;5068531;28;20413;-72
2022/05/21 13:48:59;;;;;;;0.40;0.40;;;;;;;;;;5068728;28;20967;-71
2022/05/21 13:51:28;;;;;;;1.33;0.40;;;;;;;;;;5069524;28;21181;-72
2022/05/21 13:53:56;;;;;;;1.80;0.60;;;;;;;;;;5067454;28;20417;-71
2022/05/21 13:56:36;;;;;;;2.73;0.50;;;;;;;;;;5069009;28;20414;-72
2022/05/21 13:59:13;;;;;;;0.67;0.67;;;;;;;;;;5065219;28;20481;-72
2022/05/21 14:01:39;;;;;;;0.80;0.53;;;;;;;;;;5070364;28;20437;-72
2022/05/21 14:04:06;;;;;;;0.47;0.47;;;;;;;;;;5072269;28;20560;-72
2022/05/21 14:06:34;;;;;;;0.40;0.40;;;;;;;;;;5070934;28;20437;-72
2022/05/21 14:09:01;;;;;;;3.50;0.60;;;;;;;;;;5071981;28;20421;-72
2022/05/21 14:11:28;;;;;;;0.40;0.40;;;;;;;;;;5070536;28;20994;-72
2022/05/21 14:14:00;;;;;;;0.63;0.63;;;;;;;;;;5065846;28;20896;-72
2022/05/21 14:16:34;;;;;;;0.50;0.50;;;;;;;;;;5070834;28;20433;-72
2022/05/21 14:19:00;;;;;;;0.40;0.40;;;;;;;;;;5070797;28;20472;-72
2022/05/21 14:21:27;;;;;;;0.40;0.40;;;;;;;;;;5072502;28;20582;-73
2022/05/21 14:24:12;;;;;;;0.40;0.40;;;;;;;;;;5069673;28;20936;-72
2022/05/21 14:26:38;;;;;;;0.60;0.60;;;;;;;;;;5072875;28;20462;-72
2022/05/21 14:29:36;;;;;;;0.50;0.47;;;;;;;;;;5065727;28;20441;-72
2022/05/21 14:32:11;;;;;;;0.47;0.47;;;;;;;;;;5056443;28;20425;-72
2022/05/21 14:34:37;;;;;;;0.73;0.50;;;;;;;;;;5069847;28;20436;-72
2022/05/21 14:37:03;;;;;;;1.77;0.50;;;;;;;;;;5071429;28;20933;-71
2022/05/21 14:39:29;;;;;;;0.60;0.50;;;;;;;;;;5071225;28;20489;-72
2022/05/21 14:41:59;;;;;;;6.33;0.50;;;;;;;;;;5068732;28;20801;-72
2022/05/21 14:44:25;;;;;;;0.50;0.40;;;;;;;;;;5068358;28;20818;-72
2022/05/21 14:49:37;;;;;;;0.63;0.63;;;;;;;;;;5069874;28;20502;-71
2022/05/21 14:54:50;;;;;;;2.00;0.50;;;;;;;;;;5066956;28;20876;-72
2022/05/21 14:57:16;;;;;;;0.40;0.40;;;;;;;;;;5067545;28;20429;-72
2022/05/21 14:59:43;;;;;;;1.73;1.00;;;;;;;;;;5066139;28;20486;-71
2022/05/21 15:02:11;;;;;;;0.40;0.40;;;;;;;;;;5066260;28;20441;-72
2022/05/21 15:04:37;;;;;;;1.10;0.63;;;;;;;;;;5071125;28;20430;-72
2022/05/21 15:07:05;;;;;;;0.70;0.70;;;;;;;;;;5072235;28;20920;-73
2022/05/21 15:09:31;;;;;;;0.73;0.40;;;;;;;;;;5069625;28;20448;-72
2022/05/21 15:11:58;;;;;;;0.60;0.60;;;;;;;;;;5070351;28;20417;-73
2022/05/21 15:14:24;;;;;;;0.40;0.40;;;;;;;;;;5070873;28;20802;-73
2022/05/21 15:16:50;;;;;;;0.57;0.57;;;;;;;;;;5071590;28;20418;-72
2022/05/21 15:19:16;;;;;;;1.90;0.70;;;;;;;;;;5071668;28;20568;-72
2022/05/21 15:21:44;;;;;;;0.50;0.50;;;;;;;;;;5071661;28;20426;-72
2022/05/21 15:24:10;;;;;;;0.63;0.63;;;;;;;;;;5070149;28;20802;-71
2022/05/21 15:26:36;;;;;;;0.50;0.50;;;;;;;;;;5069358;28;20433;-73
2022/05/21 15:29:03;;;;;;;0.70;0.70;;;;;;;;;;5071371;28;20483;-73
2022/05/21 15:31:30;;;;;;;0.57;0.57;;;;;;;;;;5071601;28;20449;-72
2022/05/21 15:33:57;;;;;;;1.60;1.53;;;;;;;;;;5068685;28;21033;-72